sensor_id;sensor_type;location;lat;lon;timestamp;temperature;humidity
30534;DHT22;17318;52.390;9.754;2022-12-18T00:01:50;-1.20;93.40
30534;DHT22;17318;52.390;9.754;2022-12-18T00:04:22;-1.20;93.40
30534;DHT22;17318;52.390;9.754;2022-12-18T00:06:48;-1.20;93.30
30534;DHT22;17318;52.390;9.754;2022-12-18T00:09:14;-1.30;93.30
30534;DHT22;17318;52.390;9.754;2022-12-18T00:11:40;-1.20;93.50
30534;DHT22;17318;52.390;9.754;2022-12-18T00:14:06;-1.30;93.40
30534;DHT22;17318;52.390;9.754;2022-12-18T00:16:32;-1.30;93.50
30534;DHT22;17318;52.390;9.754;2022-12-18T00:19:01;-1.30;93.50
30534;DHT22;17318;52.390;9.754;2022-12-18T00:21:28;-1.20;93.40
30534;DHT22;17318;52.390;9.754;2022-12-18T00:23:54;-1.20;93.50
30534;DHT22;17318;52.390;9.754;2022-12-18T00:26:22;-1.20;93.70
30534;DHT22;17318;52.390;9.754;2022-12-18T00:28:49;-1.30;93.40
30534;DHT22;17318;52.390;9.754;2022-12-18T00:31:19;-1.30;93.50
30534;DHT22;17318;52.390;9.754;2022-12-18T00:33:44;-1.30;93.40
30534;DHT22;17318;52.390;9.754;2022-12-18T00:36:13;-1.30;93.50
30534;DHT22;17318;52.390;9.754;2022-12-18T00:38:39;-1.30;93.50
30534;DHT22;17318;52.390;9.754;2022-12-18T00:41:07;-1.30;93.50
30534;DHT22;17318;52.390;9.754;2022-12-18T00:43:32;-1.20;93.50
30534;DHT22;17318;52.390;9.754;2022-12-18T00:45:58;-1.20;93.50
30534;DHT22;17318;52.390;9.754;2022-12-18T00:48:24;-1.20;93.50
30534;DHT22;17318;52.390;9.754;2022-12-18T00:50:50;-1.20;93.50
30534;DHT22;17318;52.390;9.754;2022-12-18T00:53:16;-1.20;93.50
30534;DHT22;17318;52.390;9.754;2022-12-18T00:55:43;-1.20;93.50
30534;DHT22;17318;52.390;9.754;2022-12-18T00:58:09;-1.20;93.30
30534;DHT22;17318;52.390;9.754;2022-12-18T01:00:36;-1.10;93.30
30534;DHT22;17318;52.390;9.754;2022-12-18T01:03:01;-1.20;93.30
30534;DHT22;17318;52.390;9.754;2022-12-18T01:05:27;-1.30;93.20
30534;DHT22;17318;52.390;9.754;2022-12-18T01:07:53;-1.30;93.20
30534;DHT22;17318;52.390;9.754;2022-12-18T01:10:20;-1.30;93.30
30534;DHT22;17318;52.390;9.754;2022-12-18T01:12:45;-1.20;93.30
30534;DHT22;17318;52.390;9.754;2022-12-18T01:15:12;-1.30;93.30
30534;DHT22;17318;52.390;9.754;2022-12-18T01:17:38;-1.30;93.30
30534;DHT22;17318;52.390;9.754;2022-12-18T01:20:05;-1.30;93.20
30534;DHT22;17318;52.390;9.754;2022-12-18T01:22:30;-1.30;93.20
30534;DHT22;17318;52.390;9.754;2022-12-18T01:24:59;-1.30;93.20
30534;DHT22;17318;52.390;9.754;2022-12-18T01:27:25;-1.40;93.20
30534;DHT22;17318;52.390;9.754;2022-12-18T01:29:50;-1.30;93.30
30534;DHT22;17318;52.390;9.754;2022-12-18T01:32:16;-1.40;93.30
30534;DHT22;17318;52.390;9.754;2022-12-18T01:34:42;-1.40;93.40
30534;DHT22;17318;52.390;9.754;2022-12-18T01:37:07;-1.40;93.50
30534;DHT22;17318;52.390;9.754;2022-12-18T01:39:33;-1.40;93.50
30534;DHT22;17318;52.390;9.754;2022-12-18T01:42:00;-1.40;93.50
30534;DHT22;17318;52.390;9.754;2022-12-18T01:44:57;-1.50;93.60
30534;DHT22;17318;52.390;9.754;2022-12-18T01:47:43;-1.50;93.60
30534;DHT22;17318;52.390;9.754;2022-12-18T01:50:22;-1.50;93.60
30534;DHT22;17318;52.390;9.754;2022-12-18T01:52:55;-1.50;93.70
30534;DHT22;17318;52.390;9.754;2022-12-18T01:55:25;-1.50;93.70
30534;DHT22;17318;52.390;9.754;2022-12-18T01:57:57;-1.50;93.70
30534;DHT22;17318;52.390;9.754;2022-12-18T02:00:25;-1.50;93.60
30534;DHT22;17318;52.390;9.754;2022-12-18T02:02:52;-1.50;93.70
30534;DHT22;17318;52.390;9.754;2022-12-18T02:05:24;-1.50;93.70
30534;DHT22;17318;52.390;9.754;2022-12-18T02:07:59;-1.50;93.70
30534;DHT22;17318;52.390;9.754;2022-12-18T02:18:38;-1.50;93.80
30534;DHT22;17318;52.390;9.754;2022-12-18T02:21:12;-1.60;93.80
30534;DHT22;17318;52.390;9.754;2022-12-18T02:26:47;-1.60;93.80
30534;DHT22;17318;52.390;9.754;2022-12-18T02:29:32;-1.50;93.80
30534;DHT22;17318;52.390;9.754;2022-12-18T02:32:00;-1.50;93.80
30534;DHT22;17318;52.390;9.754;2022-12-18T02:34:29;-1.40;93.80
30534;DHT22;17318;52.390;9.754;2022-12-18T02:36:58;-1.50;93.80
30534;DHT22;17318;52.390;9.754;2022-12-18T02:39:27;-1.50;93.60
30534;DHT22;17318;52.390;9.754;2022-12-18T02:41:54;-1.50;93.60
30534;DHT22;17318;52.390;9.754;2022-12-18T02:44:20;-1.50;93.60
30534;DHT22;17318;52.390;9.754;2022-12-18T02:46:50;-1.50;93.60
30534;DHT22;17318;52.390;9.754;2022-12-18T02:52:28;-1.60;93.60
30534;DHT22;17318;52.390;9.754;2022-12-18T02:55:13;-1.70;93.70
30534;DHT22;17318;52.390;9.754;2022-12-18T02:58:15;-1.70;93.70
30534;DHT22;17318;52.390;9.754;2022-12-18T03:01:09;-1.70;93.80
30534;DHT22;17318;52.390;9.754;2022-12-18T03:03:43;-1.60;93.70
30534;DHT22;17318;52.390;9.754;2022-12-18T03:06:23;-1.80;93.70
30534;DHT22;17318;52.390;9.754;2022-12-18T03:08:54;-1.70;93.70
30534;DHT22;17318;52.390;9.754;2022-12-18T03:11:21;-1.80;93.70
30534;DHT22;17318;52.390;9.754;2022-12-18T03:14:07;-1.90;93.90
30534;DHT22;17318;52.390;9.754;2022-12-18T03:16:35;-1.90;93.90
30534;DHT22;17318;52.390;9.754;2022-12-18T03:19:14;-1.90;94.00
30534;DHT22;17318;52.390;9.754;2022-12-18T03:21:47;-1.90;94.00
30534;DHT22;17318;52.390;9.754;2022-12-18T03:24:14;-1.90;93.90
30534;DHT22;17318;52.390;9.754;2022-12-18T03:26:43;-1.90;93.90
30534;DHT22;17318;52.390;9.754;2022-12-18T03:29:34;-1.90;93.90
30534;DHT22;17318;52.390;9.754;2022-12-18T03:32:23;-2.00;93.80
30534;DHT22;17318;52.390;9.754;2022-12-18T03:34:51;-2.00;93.90
30534;DHT22;17318;52.390;9.754;2022-12-18T03:37:19;-2.10;94.10
30534;DHT22;17318;52.390;9.754;2022-12-18T03:39:45;-2.00;94.10
30534;DHT22;17318;52.390;9.754;2022-12-18T03:45:22;-2.00;94.10
30534;DHT22;17318;52.390;9.754;2022-12-18T03:50:59;-2.00;94.00
30534;DHT22;17318;52.390;9.754;2022-12-18T03:56:05;-2.00;94.00
30534;DHT22;17318;52.390;9.754;2022-12-18T03:58:32;-1.90;94.10
30534;DHT22;17318;52.390;9.754;2022-12-18T04:01:03;-2.00;93.90
30534;DHT22;17318;52.390;9.754;2022-12-18T04:03:32;-2.00;93.90
30534;DHT22;17318;52.390;9.754;2022-12-18T04:05:59;-2.00;93.90
30534;DHT22;17318;52.390;9.754;2022-12-18T04:08:26;-2.00;93.90
30534;DHT22;17318;52.390;9.754;2022-12-18T04:10:52;-2.00;94.00
30534;DHT22;17318;52.390;9.754;2022-12-18T04:13:36;-2.10;93.80
30534;DHT22;17318;52.390;9.754;2022-12-18T04:16:02;-2.20;93.50
30534;DHT22;17318;52.390;9.754;2022-12-18T04:18:28;-2.20;93.40
30534;DHT22;17318;52.390;9.754;2022-12-18T04:20:53;-2.20;93.40
30534;DHT22;17318;52.390;9.754;2022-12-18T04:23:19;-2.30;93.40
30534;DHT22;17318;52.390;9.754;2022-12-18T04:25:47;-2.40;93.30
30534;DHT22;17318;52.390;9.754;2022-12-18T04:28:13;-2.50;93.30
30534;DHT22;17318;52.390;9.754;2022-12-18T04:30:39;-2.60;93.30
30534;DHT22;17318;52.390;9.754;2022-12-18T04:33:11;-2.70;93.20
30534;DHT22;17318;52.390;9.754;2022-12-18T04:35:37;-2.80;93.10
30534;DHT22;17318;52.390;9.754;2022-12-18T04:38:03;-2.90;92.90
30534;DHT22;17318;52.390;9.754;2022-12-18T04:40:28;-2.90;93.10
30534;DHT22;17318;52.390;9.754;2022-12-18T04:42:54;-3.00;93.00
30534;DHT22;17318;52.390;9.754;2022-12-18T04:45:20;-3.10;93.20
30534;DHT22;17318;52.390;9.754;2022-12-18T04:47:49;-3.10;93.40
30534;DHT22;17318;52.390;9.754;2022-12-18T04:50:24;-3.20;93.30
30534;DHT22;17318;52.390;9.754;2022-12-18T04:52:49;-3.20;93.30
30534;DHT22;17318;52.390;9.754;2022-12-18T04:55:15;-3.30;93.20
30534;DHT22;17318;52.390;9.754;2022-12-18T04:57:41;-3.30;93.40
30534;DHT22;17318;52.390;9.754;2022-12-18T05:00:07;-3.40;93.40
30534;DHT22;17318;52.390;9.754;2022-12-18T05:02:33;-3.40;93.40
30534;DHT22;17318;52.390;9.754;2022-12-18T05:04:59;-3.30;93.50
30534;DHT22;17318;52.390;9.754;2022-12-18T05:07:25;-3.40;93.20
30534;DHT22;17318;52.390;9.754;2022-12-18T05:09:50;-3.40;93.30
30534;DHT22;17318;52.390;9.754;2022-12-18T05:12:16;-3.40;93.20
30534;DHT22;17318;52.390;9.754;2022-12-18T05:14:42;-3.50;93.20
30534;DHT22;17318;52.390;9.754;2022-12-18T05:17:08;-3.60;93.10
30534;DHT22;17318;52.390;9.754;2022-12-18T05:19:33;-3.50;93.20
30534;DHT22;17318;52.390;9.754;2022-12-18T05:21:59;-3.60;92.90
30534;DHT22;17318;52.390;9.754;2022-12-18T05:24:25;-3.60;93.10
30534;DHT22;17318;52.390;9.754;2022-12-18T05:26:51;-3.70;93.10
30534;DHT22;17318;52.390;9.754;2022-12-18T05:29:16;-3.60;93.10
30534;DHT22;17318;52.390;9.754;2022-12-18T05:31:42;-3.60;93.10
30534;DHT22;17318;52.390;9.754;2022-12-18T05:34:08;-3.50;93.40
30534;DHT22;17318;52.390;9.754;2022-12-18T05:36:34;-3.50;93.40
30534;DHT22;17318;52.390;9.754;2022-12-18T05:38:59;-3.50;93.50
30534;DHT22;17318;52.390;9.754;2022-12-18T05:41:26;-3.40;93.30
30534;DHT22;17318;52.390;9.754;2022-12-18T05:43:52;-3.50;93.10
30534;DHT22;17318;52.390;9.754;2022-12-18T05:46:18;-3.60;93.10
30534;DHT22;17318;52.390;9.754;2022-12-18T05:48:44;-3.40;93.50
30534;DHT22;17318;52.390;9.754;2022-12-18T05:51:13;-3.40;93.70
30534;DHT22;17318;52.390;9.754;2022-12-18T05:53:39;-3.40;93.20
30534;DHT22;17318;52.390;9.754;2022-12-18T05:56:09;-3.50;92.70
30534;DHT22;17318;52.390;9.754;2022-12-18T05:58:35;-3.60;92.50
30534;DHT22;17318;52.390;9.754;2022-12-18T06:01:09;-3.60;92.70
30534;DHT22;17318;52.390;9.754;2022-12-18T06:03:35;-3.60;92.70
30534;DHT22;17318;52.390;9.754;2022-12-18T06:06:01;-3.70;92.60
30534;DHT22;17318;52.390;9.754;2022-12-18T06:08:27;-3.80;92.40
30534;DHT22;17318;52.390;9.754;2022-12-18T06:10:53;-3.90;92.50
30534;DHT22;17318;52.390;9.754;2022-12-18T06:13:19;-3.70;93.20
30534;DHT22;17318;52.390;9.754;2022-12-18T06:15:45;-3.70;92.90
30534;DHT22;17318;52.390;9.754;2022-12-18T06:18:11;-3.60;93.40
30534;DHT22;17318;52.390;9.754;2022-12-18T06:20:37;-3.50;93.90
30534;DHT22;17318;52.390;9.754;2022-12-18T06:23:05;-3.40;94.10
30534;DHT22;17318;52.390;9.754;2022-12-18T06:25:31;-3.30;93.90
30534;DHT22;17318;52.390;9.754;2022-12-18T06:27:58;-3.20;94.00
30534;DHT22;17318;52.390;9.754;2022-12-18T06:30:24;-3.20;93.60
30534;DHT22;17318;52.390;9.754;2022-12-18T06:32:50;-3.20;93.50
30534;DHT22;17318;52.390;9.754;2022-12-18T06:35:16;-3.20;93.50
30534;DHT22;17318;52.390;9.754;2022-12-18T06:37:42;-3.20;93.50
30534;DHT22;17318;52.390;9.754;2022-12-18T06:40:08;-3.20;93.50
30534;DHT22;17318;52.390;9.754;2022-12-18T06:42:34;-3.20;93.40
30534;DHT22;17318;52.390;9.754;2022-12-18T06:44:59;-3.10;93.70
30534;DHT22;17318;52.390;9.754;2022-12-18T06:47:25;-3.00;93.80
30534;DHT22;17318;52.390;9.754;2022-12-18T06:49:51;-3.00;93.90
30534;DHT22;17318;52.390;9.754;2022-12-18T06:52:16;-2.90;94.10
30534;DHT22;17318;52.390;9.754;2022-12-18T06:54:43;-2.80;93.70
30534;DHT22;17318;52.390;9.754;2022-12-18T06:57:08;-2.80;93.70
30534;DHT22;17318;52.390;9.754;2022-12-18T06:59:34;-2.80;93.60
30534;DHT22;17318;52.390;9.754;2022-12-18T07:02:00;-2.80;93.60
30534;DHT22;17318;52.390;9.754;2022-12-18T07:04:29;-2.90;93.40
30534;DHT22;17318;52.390;9.754;2022-12-18T07:06:55;-3.30;92.70
30534;DHT22;17318;52.390;9.754;2022-12-18T07:09:21;-3.10;92.40
30534;DHT22;17318;52.390;9.754;2022-12-18T07:11:47;-3.10;92.90
30534;DHT22;17318;52.390;9.754;2022-12-18T07:14:12;-3.00;93.10
30534;DHT22;17318;52.390;9.754;2022-12-18T07:16:38;-3.10;92.90
30534;DHT22;17318;52.390;9.754;2022-12-18T07:19:04;-3.20;92.50
30534;DHT22;17318;52.390;9.754;2022-12-18T07:21:30;-3.40;92.10
30534;DHT22;17318;52.390;9.754;2022-12-18T07:23:56;-3.40;92.00
30534;DHT22;17318;52.390;9.754;2022-12-18T07:26:22;-3.50;92.10
30534;DHT22;17318;52.390;9.754;2022-12-18T07:28:49;-3.50;92.40
30534;DHT22;17318;52.390;9.754;2022-12-18T07:31:18;-3.60;92.10
30534;DHT22;17318;52.390;9.754;2022-12-18T07:33:45;-3.60;92.20
30534;DHT22;17318;52.390;9.754;2022-12-18T07:36:11;-3.50;92.60
30534;DHT22;17318;52.390;9.754;2022-12-18T07:38:37;-3.40;93.00
30534;DHT22;17318;52.390;9.754;2022-12-18T07:41:06;-3.50;92.50
30534;DHT22;17318;52.390;9.754;2022-12-18T07:43:32;-3.50;93.00
30534;DHT22;17318;52.390;9.754;2022-12-18T07:45:58;-3.40;93.10
30534;DHT22;17318;52.390;9.754;2022-12-18T07:48:24;-3.40;93.10
30534;DHT22;17318;52.390;9.754;2022-12-18T07:50:49;-3.40;93.10
30534;DHT22;17318;52.390;9.754;2022-12-18T07:53:15;-3.30;93.10
30534;DHT22;17318;52.390;9.754;2022-12-18T07:55:42;-3.30;92.50
30534;DHT22;17318;52.390;9.754;2022-12-18T07:58:08;-3.40;92.20
30534;DHT22;17318;52.390;9.754;2022-12-18T08:00:34;-3.40;92.20
30534;DHT22;17318;52.390;9.754;2022-12-18T08:03:00;-3.30;92.70
30534;DHT22;17318;52.390;9.754;2022-12-18T08:05:26;-3.40;92.20
30534;DHT22;17318;52.390;9.754;2022-12-18T08:07:52;-3.50;92.10
30534;DHT22;17318;52.390;9.754;2022-12-18T08:10:19;-3.60;91.80
30534;DHT22;17318;52.390;9.754;2022-12-18T08:12:44;-3.60;92.10
30534;DHT22;17318;52.390;9.754;2022-12-18T08:15:10;-3.60;92.40
30534;DHT22;17318;52.390;9.754;2022-12-18T08:17:36;-3.40;93.10
30534;DHT22;17318;52.390;9.754;2022-12-18T08:20:02;-3.30;93.40
30534;DHT22;17318;52.390;9.754;2022-12-18T08:22:28;-3.20;93.30
30534;DHT22;17318;52.390;9.754;2022-12-18T08:24:54;-3.30;92.80
30534;DHT22;17318;52.390;9.754;2022-12-18T08:27:20;-3.20;93.30
30534;DHT22;17318;52.390;9.754;2022-12-18T08:29:45;-3.10;93.50
30534;DHT22;17318;52.390;9.754;2022-12-18T08:32:11;-3.00;93.60
30534;DHT22;17318;52.390;9.754;2022-12-18T08:34:37;-3.10;92.80
30534;DHT22;17318;52.390;9.754;2022-12-18T08:37:02;-3.20;92.40
30534;DHT22;17318;52.390;9.754;2022-12-18T08:39:28;-3.20;92.50
30534;DHT22;17318;52.390;9.754;2022-12-18T08:41:53;-3.30;92.50
30534;DHT22;17318;52.390;9.754;2022-12-18T08:44:38;-3.30;92.50
30534;DHT22;17318;52.390;9.754;2022-12-18T08:47:05;-3.30;92.40
30534;DHT22;17318;52.390;9.754;2022-12-18T08:49:31;-3.30;92.60
30534;DHT22;17318;52.390;9.754;2022-12-18T08:51:58;-3.20;92.80
30534;DHT22;17318;52.390;9.754;2022-12-18T08:54:24;-3.10;93.00
30534;DHT22;17318;52.390;9.754;2022-12-18T08:56:50;-3.00;93.00
30534;DHT22;17318;52.390;9.754;2022-12-18T08:59:19;-2.90;93.10
30534;DHT22;17318;52.390;9.754;2022-12-18T09:01:45;-2.80;93.30
30534;DHT22;17318;52.390;9.754;2022-12-18T09:04:12;-2.60;93.40
30534;DHT22;17318;52.390;9.754;2022-12-18T09:06:38;-2.50;93.60
30534;DHT22;17318;52.390;9.754;2022-12-18T09:09:04;-2.30;93.60
30534;DHT22;17318;52.390;9.754;2022-12-18T09:11:31;-2.20;93.70
30534;DHT22;17318;52.390;9.754;2022-12-18T09:13:59;-2.10;93.60
30534;DHT22;17318;52.390;9.754;2022-12-18T09:16:25;-2.00;93.60
30534;DHT22;17318;52.390;9.754;2022-12-18T09:18:51;-1.90;93.80
30534;DHT22;17318;52.390;9.754;2022-12-18T09:21:20;-1.70;94.00
30534;DHT22;17318;52.390;9.754;2022-12-18T09:23:53;-1.60;94.00
30534;DHT22;17318;52.390;9.754;2022-12-18T09:26:20;-1.40;94.00
30534;DHT22;17318;52.390;9.754;2022-12-18T09:28:46;-1.40;93.80
30534;DHT22;17318;52.390;9.754;2022-12-18T09:31:13;-1.30;93.80
30534;DHT22;17318;52.390;9.754;2022-12-18T09:33:39;-1.20;93.70
30534;DHT22;17318;52.390;9.754;2022-12-18T09:36:07;-1.10;93.70
30534;DHT22;17318;52.390;9.754;2022-12-18T09:38:34;-1.10;93.50
30534;DHT22;17318;52.390;9.754;2022-12-18T09:41:15;-1.00;93.60
30534;DHT22;17318;52.390;9.754;2022-12-18T09:43:48;-0.90;93.70
30534;DHT22;17318;52.390;9.754;2022-12-18T09:46:34;-0.80;93.70
30534;DHT22;17318;52.390;9.754;2022-12-18T09:49:03;-0.70;93.70
30534;DHT22;17318;52.390;9.754;2022-12-18T09:51:41;-0.60;93.50
30534;DHT22;17318;52.390;9.754;2022-12-18T09:54:16;-0.50;93.50
30534;DHT22;17318;52.390;9.754;2022-12-18T09:56:43;-0.40;93.60
30534;DHT22;17318;52.390;9.754;2022-12-18T09:59:25;-0.20;93.60
30534;DHT22;17318;52.390;9.754;2022-12-18T10:01:52;-0.10;93.50
30534;DHT22;17318;52.390;9.754;2022-12-18T10:04:18;0.10;93.50
30534;DHT22;17318;52.390;9.754;2022-12-18T10:06:58;0.20;93.50
30534;DHT22;17318;52.390;9.754;2022-12-18T10:09:31;0.30;93.20
30534;DHT22;17318;52.390;9.754;2022-12-18T10:12:13;0.40;93.20
30534;DHT22;17318;52.390;9.754;2022-12-18T10:17:51;0.70;93.10
30534;DHT22;17318;52.390;9.754;2022-12-18T10:20:40;0.80;92.90
30534;DHT22;17318;52.390;9.754;2022-12-18T10:23:44;1.00;92.90
30534;DHT22;17318;52.390;9.754;2022-12-18T10:26:11;1.00;92.60
30534;DHT22;17318;52.390;9.754;2022-12-18T10:28:41;1.10;92.60
30534;DHT22;17318;52.390;9.754;2022-12-18T10:31:12;1.20;92.60
30534;DHT22;17318;52.390;9.754;2022-12-18T10:33:39;1.30;92.50
30534;DHT22;17318;52.390;9.754;2022-12-18T10:36:06;1.50;92.60
30534;DHT22;17318;52.390;9.754;2022-12-18T10:38:33;1.40;92.50
30534;DHT22;17318;52.390;9.754;2022-12-18T10:41:04;1.50;92.70
30534;DHT22;17318;52.390;9.754;2022-12-18T10:43:38;1.60;92.60
30534;DHT22;17318;52.390;9.754;2022-12-18T10:51:23;1.80;92.80
30534;DHT22;17318;52.390;9.754;2022-12-18T10:54:05;1.90;93.00
30534;DHT22;17318;52.390;9.754;2022-12-18T10:56:34;2.00;93.00
30534;DHT22;17318;52.390;9.754;2022-12-18T10:59:05;2.00;93.10
30534;DHT22;17318;52.390;9.754;2022-12-18T11:01:55;1.90;92.70
30534;DHT22;17318;52.390;9.754;2022-12-18T11:04:29;2.00;92.80
30534;DHT22;17318;52.390;9.754;2022-12-18T11:07:06;2.00;92.70
30534;DHT22;17318;52.390;9.754;2022-12-18T11:09:34;2.00;92.80
30534;DHT22;17318;52.390;9.754;2022-12-18T11:12:04;2.20;92.70
30534;DHT22;17318;52.390;9.754;2022-12-18T11:14:43;2.20;92.30
30534;DHT22;17318;52.390;9.754;2022-12-18T11:17:29;2.30;92.50
30534;DHT22;17318;52.390;9.754;2022-12-18T11:19:58;2.50;92.30
30534;DHT22;17318;52.390;9.754;2022-12-18T11:27:46;2.80;92.70
30534;DHT22;17318;52.390;9.754;2022-12-18T11:30:25;3.00;92.30
30534;DHT22;17318;52.390;9.754;2022-12-18T11:33:10;2.90;91.60
30534;DHT22;17318;52.390;9.754;2022-12-18T11:35:51;3.20;91.80
30534;DHT22;17318;52.390;9.754;2022-12-18T11:38:26;3.50;91.80
30534;DHT22;17318;52.390;9.754;2022-12-18T11:40:59;4.30;91.30
30534;DHT22;17318;52.390;9.754;2022-12-18T11:46:17;5.60;90.10
30534;DHT22;17318;52.390;9.754;2022-12-18T11:48:57;5.80;87.20
30534;DHT22;17318;52.390;9.754;2022-12-18T11:51:32;6.00;86.90
30534;DHT22;17318;52.390;9.754;2022-12-18T11:54:00;6.00;86.70
30534;DHT22;17318;52.390;9.754;2022-12-18T11:56:41;5.80;85.50
30534;DHT22;17318;52.390;9.754;2022-12-18T11:59:18;5.70;86.10
30534;DHT22;17318;52.390;9.754;2022-12-18T12:01:53;5.70;86.50
30534;DHT22;17318;52.390;9.754;2022-12-18T12:21:35;4.90;86.00
30534;DHT22;17318;52.390;9.754;2022-12-18T12:26:56;4.70;86.10
30534;DHT22;17318;52.390;9.754;2022-12-18T12:32:32;4.60;86.50
30534;DHT22;17318;52.390;9.754;2022-12-18T12:38:13;4.50;85.80
30534;DHT22;17318;52.390;9.754;2022-12-18T12:40:45;4.40;85.50
30534;DHT22;17318;52.390;9.754;2022-12-18T12:43:35;4.30;85.20
30534;DHT22;17318;52.390;9.754;2022-12-18T12:46:12;4.10;85.20
30534;DHT22;17318;52.390;9.754;2022-12-18T12:48:55;4.10;86.00
30534;DHT22;17318;52.390;9.754;2022-12-18T12:53:49;3.90;86.30
30534;DHT22;17318;52.390;9.754;2022-12-18T12:56:17;4.00;86.60
30534;DHT22;17318;52.390;9.754;2022-12-18T13:01:35;3.70;86.60
30534;DHT22;17318;52.390;9.754;2022-12-18T13:09:13;3.70;87.30
30534;DHT22;17318;52.390;9.754;2022-12-18T13:14:39;3.50;87.40
30534;DHT22;17318;52.390;9.754;2022-12-18T13:20:08;3.60;87.30
30534;DHT22;17318;52.390;9.754;2022-12-18T13:25:00;3.40;87.30
30534;DHT22;17318;52.390;9.754;2022-12-18T13:40:59;3.20;87.80
30534;DHT22;17318;52.390;9.754;2022-12-18T13:43:46;3.20;87.60
30534;DHT22;17318;52.390;9.754;2022-12-18T13:51:44;3.30;87.40
30534;DHT22;17318;52.390;9.754;2022-12-18T13:54:29;3.20;87.60
30534;DHT22;17318;52.390;9.754;2022-12-18T13:56:56;3.00;87.80
30534;DHT22;17318;52.390;9.754;2022-12-18T13:59:26;3.00;88.00
30534;DHT22;17318;52.390;9.754;2022-12-18T14:02:00;2.90;88.20
30534;DHT22;17318;52.390;9.754;2022-12-18T14:04:33;2.80;88.40
30534;DHT22;17318;52.390;9.754;2022-12-18T14:07:13;2.80;88.30
30534;DHT22;17318;52.390;9.754;2022-12-18T14:09:48;2.70;88.50
30534;DHT22;17318;52.390;9.754;2022-12-18T14:12:17;2.60;88.20
30534;DHT22;17318;52.390;9.754;2022-12-18T14:15:03;2.40;88.50
30534;DHT22;17318;52.390;9.754;2022-12-18T14:17:31;2.50;89.00
30534;DHT22;17318;52.390;9.754;2022-12-18T14:19:57;2.30;88.80
30534;DHT22;17318;52.390;9.754;2022-12-18T14:22:26;2.30;88.80
30534;DHT22;17318;52.390;9.754;2022-12-18T14:25:24;2.10;89.40
30534;DHT22;17318;52.390;9.754;2022-12-18T14:30:39;2.30;89.70
30534;DHT22;17318;52.390;9.754;2022-12-18T14:33:12;2.20;89.30
30534;DHT22;17318;52.390;9.754;2022-12-18T14:35:41;2.20;89.70
30534;DHT22;17318;52.390;9.754;2022-12-18T14:38:21;2.10;89.80
30534;DHT22;17318;52.390;9.754;2022-12-18T14:40:55;2.20;89.80
30534;DHT22;17318;52.390;9.754;2022-12-18T14:43:21;2.10;89.90
30534;DHT22;17318;52.390;9.754;2022-12-18T14:45:47;2.10;90.00
30534;DHT22;17318;52.390;9.754;2022-12-18T14:50:42;2.10;90.00
30534;DHT22;17318;52.390;9.754;2022-12-18T14:53:32;2.00;90.00
30534;DHT22;17318;52.390;9.754;2022-12-18T14:55:58;1.90;90.10
30534;DHT22;17318;52.390;9.754;2022-12-18T14:58:25;1.80;90.20
30534;DHT22;17318;52.390;9.754;2022-12-18T15:00:50;1.70;90.40
30534;DHT22;17318;52.390;9.754;2022-12-18T15:03:20;1.80;90.40
30534;DHT22;17318;52.390;9.754;2022-12-18T15:05:47;1.80;90.40
30534;DHT22;17318;52.390;9.754;2022-12-18T15:08:45;1.80;90.30
30534;DHT22;17318;52.390;9.754;2022-12-18T15:14:39;1.70;90.40
30534;DHT22;17318;52.390;9.754;2022-12-18T15:17:25;1.60;90.50
30534;DHT22;17318;52.390;9.754;2022-12-18T15:19:58;1.50;90.90
30534;DHT22;17318;52.390;9.754;2022-12-18T15:22:29;1.50;90.80
30534;DHT22;17318;52.390;9.754;2022-12-18T15:24:56;1.40;90.80
30534;DHT22;17318;52.390;9.754;2022-12-18T15:27:29;1.50;90.80
30534;DHT22;17318;52.390;9.754;2022-12-18T15:32:36;1.30;90.90
30534;DHT22;17318;52.390;9.754;2022-12-18T15:37:34;1.30;91.10
30534;DHT22;17318;52.390;9.754;2022-12-18T15:40:00;1.30;91.10
30534;DHT22;17318;52.390;9.754;2022-12-18T15:42:27;1.30;91.30
30534;DHT22;17318;52.390;9.754;2022-12-18T15:45:12;1.30;91.30
30534;DHT22;17318;52.390;9.754;2022-12-18T15:47:38;1.10;91.50
30534;DHT22;17318;52.390;9.754;2022-12-18T15:50:04;1.10;91.60
30534;DHT22;17318;52.390;9.754;2022-12-18T15:52:41;1.10;91.60
30534;DHT22;17318;52.390;9.754;2022-12-18T15:55:15;1.10;91.50
30534;DHT22;17318;52.390;9.754;2022-12-18T15:58:00;1.20;91.50
30534;DHT22;17318;52.390;9.754;2022-12-18T16:00:26;1.10;91.50
30534;DHT22;17318;52.390;9.754;2022-12-18T16:02:51;1.00;91.80
30534;DHT22;17318;52.390;9.754;2022-12-18T16:05:18;1.10;91.90
30534;DHT22;17318;52.390;9.754;2022-12-18T16:07:45;1.10;91.90
30534;DHT22;17318;52.390;9.754;2022-12-18T16:10:12;1.00;92.00
30534;DHT22;17318;52.390;9.754;2022-12-18T16:12:38;1.00;92.10
30534;DHT22;17318;52.390;9.754;2022-12-18T16:15:05;0.90;92.30
30534;DHT22;17318;52.390;9.754;2022-12-18T16:17:31;0.90;92.10
30534;DHT22;17318;52.390;9.754;2022-12-18T16:19:57;0.90;92.20
30534;DHT22;17318;52.390;9.754;2022-12-18T16:22:27;0.90;92.20
30534;DHT22;17318;52.390;9.754;2022-12-18T16:24:55;0.90;92.30
30534;DHT22;17318;52.390;9.754;2022-12-18T16:27:22;0.90;92.30
30534;DHT22;17318;52.390;9.754;2022-12-18T16:29:47;0.90;92.40
30534;DHT22;17318;52.390;9.754;2022-12-18T16:32:16;1.00;92.40
30534;DHT22;17318;52.390;9.754;2022-12-18T16:34:42;1.00;92.30
30534;DHT22;17318;52.390;9.754;2022-12-18T16:37:11;1.30;92.30
30534;DHT22;17318;52.390;9.754;2022-12-18T16:39:37;1.10;92.30
30534;DHT22;17318;52.390;9.754;2022-12-18T16:42:12;1.00;92.30
30534;DHT22;17318;52.390;9.754;2022-12-18T16:44:40;1.10;92.40
30534;DHT22;17318;52.390;9.754;2022-12-18T16:47:06;1.10;92.20
30534;DHT22;17318;52.390;9.754;2022-12-18T16:49:32;1.10;92.20
30534;DHT22;17318;52.390;9.754;2022-12-18T16:52:03;1.20;92.30
30534;DHT22;17318;52.390;9.754;2022-12-18T16:54:29;1.10;92.20
30534;DHT22;17318;52.390;9.754;2022-12-18T16:56:55;1.10;92.20
30534;DHT22;17318;52.390;9.754;2022-12-18T16:59:21;1.20;92.10
30534;DHT22;17318;52.390;9.754;2022-12-18T17:01:47;1.30;92.10
30534;DHT22;17318;52.390;9.754;2022-12-18T17:04:13;1.20;92.10
30534;DHT22;17318;52.390;9.754;2022-12-18T17:06:41;1.10;92.00
30534;DHT22;17318;52.390;9.754;2022-12-18T17:09:11;1.10;92.00
30534;DHT22;17318;52.390;9.754;2022-12-18T17:11:36;1.20;92.10
30534;DHT22;17318;52.390;9.754;2022-12-18T17:14:06;1.10;92.00
30534;DHT22;17318;52.390;9.754;2022-12-18T17:16:32;1.10;92.40
30534;DHT22;17318;52.390;9.754;2022-12-18T17:18:58;1.10;92.10
30534;DHT22;17318;52.390;9.754;2022-12-18T17:21:24;1.50;92.20
30534;DHT22;17318;52.390;9.754;2022-12-18T17:23:49;1.10;92.00
30534;DHT22;17318;52.390;9.754;2022-12-18T17:26:15;1.20;91.90
30534;DHT22;17318;52.390;9.754;2022-12-18T17:28:41;1.30;91.90
30534;DHT22;17318;52.390;9.754;2022-12-18T17:31:17;1.30;91.80
30534;DHT22;17318;52.390;9.754;2022-12-18T17:33:43;1.30;91.60
30534;DHT22;17318;52.390;9.754;2022-12-18T17:36:09;1.30;91.60
30534;DHT22;17318;52.390;9.754;2022-12-18T17:38:35;1.30;91.50
30534;DHT22;17318;52.390;9.754;2022-12-18T17:41:02;1.30;91.60
30534;DHT22;17318;52.390;9.754;2022-12-18T17:43:28;1.30;91.50
30534;DHT22;17318;52.390;9.754;2022-12-18T17:45:54;1.30;91.60
30534;DHT22;17318;52.390;9.754;2022-12-18T17:48:20;1.30;91.60
30534;DHT22;17318;52.390;9.754;2022-12-18T17:50:45;1.20;91.50